Cedarville, Massachusetts
Current Conditions -  °F | °C
As of 9:52 PM on Monday 20 Oct 2014 (Local Time) from KPYM Reporting Station
Clear Clear  
Wind Chill: 45°   Ceiling: Unl
Heat Index: 45°   Visibility: 10mi
Dew Point: 40°   Wind: 0mph
Humidity: 82%   Direction: NA
Pressure: 30.03"   Gusts: NA
Location:  41.879°N, 70.6307°W
Report Text: KPYM 210152Z AUTO 00000KT 10SM CLR 07/04 A3003 RMK AO2 SLP168 T00720044
Loading
Personal Weather Stations






























Interactive Weather Map
Tropical Storm Tracking
New forecast layout! Learn more

10-Day Weather Forecast

Advertisements
Track Severe Weather on mobile